sensor_id;sensor_type;location;lat;lon;timestamp;P1;durP1;ratioP1;P2;durP2;ratioP2
68942;SDS011;60852;52.190;4.422;2023-12-20T00:01:46;11.29;;;7.43;;
68942;SDS011;60852;52.190;4.422;2023-12-20T00:04:11;10.19;;;6.72;;
68942;SDS011;60852;52.190;4.422;2023-12-20T00:06:36;12.32;;;8.00;;
68942;SDS011;60852;52.190;4.422;2023-12-20T00:09:02;12.33;;;7.93;;
68942;SDS011;60852;52.190;4.422;2023-12-20T00:11:27;11.42;;;7.47;;
68942;SDS011;60852;52.190;4.422;2023-12-20T00:13:53;12.09;;;7.97;;
68942;SDS011;60852;52.190;4.422;2023-12-20T00:16:18;12.64;;;8.26;;
68942;SDS011;60852;52.190;4.422;2023-12-20T00:18:44;11.89;;;7.72;;
68942;SDS011;60852;52.190;4.422;2023-12-20T00:21:09;12.19;;;7.96;;
68942;SDS011;60852;52.190;4.422;2023-12-20T00:23:35;11.97;;;7.80;;
68942;SDS011;60852;52.190;4.422;2023-12-20T00:26:00;13.01;;;8.55;;
68942;SDS011;60852;52.190;4.422;2023-12-20T00:28:26;12.33;;;7.98;;
68942;SDS011;60852;52.190;4.422;2023-12-20T00:30:51;12.65;;;8.23;;
68942;SDS011;60852;52.190;4.422;2023-12-20T00:33:16;11.82;;;7.90;;
68942;SDS011;60852;52.190;4.422;2023-12-20T00:35:42;11.51;;;7.76;;
68942;SDS011;60852;52.190;4.422;2023-12-20T00:38:07;10.57;;;7.31;;
68942;SDS011;60852;52.190;4.422;2023-12-20T00:40:34;11.81;;;8.03;;
68942;SDS011;60852;52.190;4.422;2023-12-20T00:42:59;11.01;;;7.52;;
68942;SDS011;60852;52.190;4.422;2023-12-20T00:45:25;12.37;;;8.30;;
68942;SDS011;60852;52.190;4.422;2023-12-20T00:47:50;12.38;;;8.41;;
68942;SDS011;60852;52.190;4.422;2023-12-20T00:50:16;12.86;;;8.66;;
68942;SDS011;60852;52.190;4.422;2023-12-20T00:52:41;13.37;;;8.91;;
68942;SDS011;60852;52.190;4.422;2023-12-20T00:55:07;12.89;;;8.51;;
68942;SDS011;60852;52.190;4.422;2023-12-20T00:57:32;12.49;;;8.29;;
68942;SDS011;60852;52.190;4.422;2023-12-20T00:59:58;12.54;;;8.38;;
68942;SDS011;60852;52.190;4.422;2023-12-20T01:02:23;11.47;;;7.78;;
68942;SDS011;60852;52.190;4.422;2023-12-20T01:04:49;12.32;;;8.27;;
68942;SDS011;60852;52.190;4.422;2023-12-20T01:07:14;13.25;;;8.74;;
68942;SDS011;60852;52.190;4.422;2023-12-20T01:09:40;13.23;;;8.65;;
68942;SDS011;60852;52.190;4.422;2023-12-20T01:12:05;14.25;;;9.25;;
68942;SDS011;60852;52.190;4.422;2023-12-20T01:14:31;13.39;;;8.61;;
68942;SDS011;60852;52.190;4.422;2023-12-20T01:16:56;11.70;;;7.82;;
68942;SDS011;60852;52.190;4.422;2023-12-20T01:19:21;12.63;;;8.35;;
68942;SDS011;60852;52.190;4.422;2023-12-20T01:21:49;11.98;;;7.91;;
68942;SDS011;60852;52.190;4.422;2023-12-20T01:24:14;12.68;;;8.26;;
68942;SDS011;60852;52.190;4.422;2023-12-20T01:26:39;14.06;;;9.08;;
68942;SDS011;60852;52.190;4.422;2023-12-20T01:29:05;14.42;;;9.40;;
68942;SDS011;60852;52.190;4.422;2023-12-20T01:31:30;13.30;;;8.64;;
68942;SDS011;60852;52.190;4.422;2023-12-20T01:33:56;14.72;;;9.39;;
68942;SDS011;60852;52.190;4.422;2023-12-20T01:36:21;14.56;;;9.34;;
68942;SDS011;60852;52.190;4.422;2023-12-20T01:38:46;13.89;;;8.89;;
68942;SDS011;60852;52.190;4.422;2023-12-20T01:41:12;14.32;;;9.10;;
68942;SDS011;60852;52.190;4.422;2023-12-20T01:43:37;14.32;;;9.15;;
68942;SDS011;60852;52.190;4.422;2023-12-20T01:46:03;13.42;;;8.58;;
68942;SDS011;60852;52.190;4.422;2023-12-20T01:48:29;13.90;;;8.90;;
68942;SDS011;60852;52.190;4.422;2023-12-20T01:50:57;15.15;;;9.69;;
68942;SDS011;60852;52.190;4.422;2023-12-20T01:53:25;13.46;;;8.60;;
68942;SDS011;60852;52.190;4.422;2023-12-20T01:55:54;13.34;;;8.66;;
68942;SDS011;60852;52.190;4.422;2023-12-20T01:58:21;12.82;;;8.24;;
68942;SDS011;60852;52.190;4.422;2023-12-20T02:00:48;12.86;;;8.24;;
68942;SDS011;60852;52.190;4.422;2023-12-20T02:03:14;14.34;;;9.20;;
68942;SDS011;60852;52.190;4.422;2023-12-20T02:05:41;14.40;;;9.22;;
68942;SDS011;60852;52.190;4.422;2023-12-20T02:08:07;14.25;;;9.02;;
68942;SDS011;60852;52.190;4.422;2023-12-20T02:10:33;13.79;;;8.85;;
68942;SDS011;60852;52.190;4.422;2023-12-20T02:12:59;11.65;;;7.63;;
68942;SDS011;60852;52.190;4.422;2023-12-20T02:15:24;13.35;;;8.62;;
68942;SDS011;60852;52.190;4.422;2023-12-20T02:17:50;12.87;;;8.32;;
68942;SDS011;60852;52.190;4.422;2023-12-20T02:20:16;12.22;;;8.00;;
68942;SDS011;60852;52.190;4.422;2023-12-20T02:22:41;12.35;;;8.02;;
68942;SDS011;60852;52.190;4.422;2023-12-20T02:25:07;12.78;;;8.24;;
68942;SDS011;60852;52.190;4.422;2023-12-20T02:27:32;12.99;;;8.34;;
68942;SDS011;60852;52.190;4.422;2023-12-20T02:29:59;14.80;;;9.47;;
68942;SDS011;60852;52.190;4.422;2023-12-20T02:32:25;14.18;;;9.05;;
68942;SDS011;60852;52.190;4.422;2023-12-20T02:34:54;15.54;;;9.92;;
68942;SDS011;60852;52.190;4.422;2023-12-20T02:37:20;15.65;;;9.92;;
68942;SDS011;60852;52.190;4.422;2023-12-20T02:39:45;13.75;;;8.87;;
68942;SDS011;60852;52.190;4.422;2023-12-20T02:42:11;14.74;;;9.34;;
68942;SDS011;60852;52.190;4.422;2023-12-20T02:44:36;13.02;;;8.39;;
68942;SDS011;60852;52.190;4.422;2023-12-20T02:47:02;14.02;;;8.95;;
68942;SDS011;60852;52.190;4.422;2023-12-20T02:49:28;15.48;;;9.61;;
68942;SDS011;60852;52.190;4.422;2023-12-20T02:51:53;14.73;;;9.29;;
68942;SDS011;60852;52.190;4.422;2023-12-20T02:54:19;15.44;;;9.79;;
68942;SDS011;60852;52.190;4.422;2023-12-20T02:56:44;14.96;;;9.44;;
68942;SDS011;60852;52.190;4.422;2023-12-20T02:59:09;16.20;;;10.27;;
68942;SDS011;60852;52.190;4.422;2023-12-20T03:01:35;16.57;;;10.27;;
68942;SDS011;60852;52.190;4.422;2023-12-20T03:04:07;15.10;;;9.52;;
68942;SDS011;60852;52.190;4.422;2023-12-20T03:06:32;13.39;;;8.65;;
68942;SDS011;60852;52.190;4.422;2023-12-20T03:08:58;15.02;;;9.61;;
68942;SDS011;60852;52.190;4.422;2023-12-20T03:11:26;14.64;;;9.33;;
68942;SDS011;60852;52.190;4.422;2023-12-20T03:13:52;13.14;;;8.54;;
68942;SDS011;60852;52.190;4.422;2023-12-20T03:16:17;12.71;;;8.39;;
68942;SDS011;60852;52.190;4.422;2023-12-20T03:18:43;14.30;;;9.30;;
68942;SDS011;60852;52.190;4.422;2023-12-20T03:21:09;14.99;;;9.66;;
68942;SDS011;60852;52.190;4.422;2023-12-20T03:23:34;16.84;;;10.59;;
68942;SDS011;60852;52.190;4.422;2023-12-20T03:26:00;16.53;;;10.28;;
68942;SDS011;60852;52.190;4.422;2023-12-20T03:28:26;15.27;;;9.73;;
68942;SDS011;60852;52.190;4.422;2023-12-20T03:30:52;15.08;;;9.42;;
68942;SDS011;60852;52.190;4.422;2023-12-20T03:33:17;17.36;;;10.64;;
68942;SDS011;60852;52.190;4.422;2023-12-20T03:35:43;15.89;;;9.95;;
68942;SDS011;60852;52.190;4.422;2023-12-20T03:38:08;15.01;;;9.48;;
68942;SDS011;60852;52.190;4.422;2023-12-20T03:40:34;14.71;;;9.46;;
68942;SDS011;60852;52.190;4.422;2023-12-20T03:43:00;14.54;;;9.29;;
68942;SDS011;60852;52.190;4.422;2023-12-20T03:45:25;14.82;;;9.42;;
68942;SDS011;60852;52.190;4.422;2023-12-20T03:47:51;15.52;;;9.89;;
68942;SDS011;60852;52.190;4.422;2023-12-20T03:50:21;14.30;;;9.15;;
68942;SDS011;60852;52.190;4.422;2023-12-20T03:52:47;15.13;;;9.86;;
68942;SDS011;60852;52.190;4.422;2023-12-20T03:55:13;16.59;;;10.54;;
68942;SDS011;60852;52.190;4.422;2023-12-20T03:57:39;15.82;;;9.93;;
68942;SDS011;60852;52.190;4.422;2023-12-20T04:00:05;14.33;;;9.23;;
68942;SDS011;60852;52.190;4.422;2023-12-20T04:02:35;14.50;;;9.46;;
68942;SDS011;60852;52.190;4.422;2023-12-20T04:05:05;13.62;;;8.89;;
68942;SDS011;60852;52.190;4.422;2023-12-20T04:07:31;13.77;;;8.95;;
68942;SDS011;60852;52.190;4.422;2023-12-20T04:09:57;14.69;;;9.49;;
68942;SDS011;60852;52.190;4.422;2023-12-20T04:12:23;15.60;;;10.19;;
68942;SDS011;60852;52.190;4.422;2023-12-20T04:14:48;14.38;;;9.48;;
68942;SDS011;60852;52.190;4.422;2023-12-20T04:17:14;13.27;;;8.70;;
68942;SDS011;60852;52.190;4.422;2023-12-20T04:19:41;15.06;;;9.61;;
68942;SDS011;60852;52.190;4.422;2023-12-20T04:22:08;16.38;;;10.43;;
68942;SDS011;60852;52.190;4.422;2023-12-20T04:24:33;15.80;;;10.06;;
68942;SDS011;60852;52.190;4.422;2023-12-20T04:26:59;13.63;;;8.91;;
68942;SDS011;60852;52.190;4.422;2023-12-20T04:29:24;14.54;;;9.46;;
68942;SDS011;60852;52.190;4.422;2023-12-20T04:31:50;14.51;;;9.39;;
68942;SDS011;60852;52.190;4.422;2023-12-20T04:34:17;16.02;;;10.18;;
68942;SDS011;60852;52.190;4.422;2023-12-20T04:36:42;15.39;;;9.76;;
68942;SDS011;60852;52.190;4.422;2023-12-20T04:39:08;15.44;;;9.70;;
68942;SDS011;60852;52.190;4.422;2023-12-20T04:41:33;16.65;;;10.58;;
68942;SDS011;60852;52.190;4.422;2023-12-20T04:43:59;17.51;;;11.05;;
68942;SDS011;60852;52.190;4.422;2023-12-20T04:46:25;16.75;;;10.57;;
68942;SDS011;60852;52.190;4.422;2023-12-20T04:48:51;17.89;;;11.13;;
68942;SDS011;60852;52.190;4.422;2023-12-20T04:51:16;16.19;;;10.36;;
68942;SDS011;60852;52.190;4.422;2023-12-20T04:53:42;16.98;;;10.77;;
68942;SDS011;60852;52.190;4.422;2023-12-20T04:56:07;18.10;;;11.39;;
68942;SDS011;60852;52.190;4.422;2023-12-20T04:58:33;17.52;;;11.10;;
68942;SDS011;60852;52.190;4.422;2023-12-20T05:00:58;18.02;;;11.33;;
68942;SDS011;60852;52.190;4.422;2023-12-20T05:03:24;16.44;;;10.42;;
68942;SDS011;60852;52.190;4.422;2023-12-20T05:05:49;16.71;;;10.55;;
68942;SDS011;60852;52.190;4.422;2023-12-20T05:08:14;17.03;;;10.85;;
68942;SDS011;60852;52.190;4.422;2023-12-20T05:10:40;16.42;;;10.43;;
68942;SDS011;60852;52.190;4.422;2023-12-20T05:13:06;16.76;;;10.71;;
68942;SDS011;60852;52.190;4.422;2023-12-20T05:15:31;16.44;;;10.45;;
68942;SDS011;60852;52.190;4.422;2023-12-20T05:17:57;17.23;;;10.95;;
68942;SDS011;60852;52.190;4.422;2023-12-20T05:20:23;18.19;;;11.40;;
68942;SDS011;60852;52.190;4.422;2023-12-20T05:22:48;17.38;;;10.90;;
68942;SDS011;60852;52.190;4.422;2023-12-20T05:25:14;17.85;;;11.30;;
68942;SDS011;60852;52.190;4.422;2023-12-20T05:27:39;15.70;;;10.03;;
68942;SDS011;60852;52.190;4.422;2023-12-20T05:30:05;15.18;;;9.70;;
68942;SDS011;60852;52.190;4.422;2023-12-20T05:32:31;17.07;;;10.91;;
68942;SDS011;60852;52.190;4.422;2023-12-20T05:34:56;17.35;;;11.08;;
68942;SDS011;60852;52.190;4.422;2023-12-20T05:37:22;16.10;;;10.56;;
68942;SDS011;60852;52.190;4.422;2023-12-20T05:39:47;15.48;;;10.17;;
68942;SDS011;60852;52.190;4.422;2023-12-20T05:42:13;14.64;;;9.62;;
68942;SDS011;60852;52.190;4.422;2023-12-20T05:44:38;13.80;;;9.10;;
68942;SDS011;60852;52.190;4.422;2023-12-20T05:47:04;16.32;;;10.55;;
68942;SDS011;60852;52.190;4.422;2023-12-20T05:49:29;15.12;;;10.02;;
68942;SDS011;60852;52.190;4.422;2023-12-20T05:51:55;14.69;;;9.62;;
68942;SDS011;60852;52.190;4.422;2023-12-20T05:54:20;15.61;;;10.15;;
68942;SDS011;60852;52.190;4.422;2023-12-20T05:56:46;16.76;;;10.78;;
68942;SDS011;60852;52.190;4.422;2023-12-20T05:59:12;16.61;;;10.51;;
68942;SDS011;60852;52.190;4.422;2023-12-20T06:01:37;18.43;;;11.61;;
68942;SDS011;60852;52.190;4.422;2023-12-20T06:04:03;17.80;;;11.16;;
68942;SDS011;60852;52.190;4.422;2023-12-20T06:06:29;18.22;;;11.58;;
68942;SDS011;60852;52.190;4.422;2023-12-20T06:08:55;17.11;;;10.87;;
68942;SDS011;60852;52.190;4.422;2023-12-20T06:11:21;18.41;;;11.68;;
68942;SDS011;60852;52.190;4.422;2023-12-20T06:13:46;18.25;;;11.57;;
68942;SDS011;60852;52.190;4.422;2023-12-20T06:16:12;15.84;;;10.31;;
68942;SDS011;60852;52.190;4.422;2023-12-20T06:18:37;16.66;;;11.00;;
68942;SDS011;60852;52.190;4.422;2023-12-20T06:21:03;16.10;;;10.60;;
68942;SDS011;60852;52.190;4.422;2023-12-20T06:23:29;18.30;;;11.75;;
68942;SDS011;60852;52.190;4.422;2023-12-20T06:25:54;17.96;;;11.43;;
68942;SDS011;60852;52.190;4.422;2023-12-20T06:28:20;16.92;;;11.25;;
68942;SDS011;60852;52.190;4.422;2023-12-20T06:30:45;17.43;;;11.92;;
68942;SDS011;60852;52.190;4.422;2023-12-20T06:33:14;14.68;;;9.88;;
68942;SDS011;60852;52.190;4.422;2023-12-20T06:35:39;14.77;;;9.72;;
68942;SDS011;60852;52.190;4.422;2023-12-20T06:38:05;16.02;;;10.39;;
68942;SDS011;60852;52.190;4.422;2023-12-20T06:40:30;17.91;;;11.29;;
68942;SDS011;60852;52.190;4.422;2023-12-20T06:42:56;18.00;;;11.40;;
68942;SDS011;60852;52.190;4.422;2023-12-20T06:45:21;17.12;;;10.92;;
68942;SDS011;60852;52.190;4.422;2023-12-20T06:47:47;16.26;;;10.36;;
68942;SDS011;60852;52.190;4.422;2023-12-20T06:50:12;17.99;;;11.41;;
68942;SDS011;60852;52.190;4.422;2023-12-20T06:52:37;18.32;;;11.68;;
68942;SDS011;60852;52.190;4.422;2023-12-20T06:55:03;18.37;;;11.72;;
68942;SDS011;60852;52.190;4.422;2023-12-20T06:57:29;16.77;;;10.94;;
68942;SDS011;60852;52.190;4.422;2023-12-20T06:59:55;18.40;;;11.63;;
68942;SDS011;60852;52.190;4.422;2023-12-20T07:02:21;20.03;;;12.46;;
68942;SDS011;60852;52.190;4.422;2023-12-20T07:04:47;19.68;;;12.60;;
68942;SDS011;60852;52.190;4.422;2023-12-20T07:07:13;17.64;;;12.19;;
68942;SDS011;60852;52.190;4.422;2023-12-20T07:09:38;16.99;;;11.12;;
68942;SDS011;60852;52.190;4.422;2023-12-20T07:12:06;18.00;;;11.53;;
68942;SDS011;60852;52.190;4.422;2023-12-20T07:14:31;16.05;;;10.29;;
68942;SDS011;60852;52.190;4.422;2023-12-20T07:16:57;16.59;;;10.29;;
68942;SDS011;60852;52.190;4.422;2023-12-20T07:19:22;15.81;;;9.94;;
68942;SDS011;60852;52.190;4.422;2023-12-20T07:21:47;16.07;;;10.05;;
68942;SDS011;60852;52.190;4.422;2023-12-20T07:24:13;18.70;;;11.47;;
68942;SDS011;60852;52.190;4.422;2023-12-20T07:26:38;19.74;;;12.13;;
68942;SDS011;60852;52.190;4.422;2023-12-20T07:29:04;18.82;;;11.65;;
68942;SDS011;60852;52.190;4.422;2023-12-20T07:31:30;18.33;;;11.48;;
68942;SDS011;60852;52.190;4.422;2023-12-20T07:33:56;18.99;;;11.89;;
68942;SDS011;60852;52.190;4.422;2023-12-20T07:36:21;18.37;;;11.54;;
68942;SDS011;60852;52.190;4.422;2023-12-20T07:38:46;19.57;;;11.86;;
68942;SDS011;60852;52.190;4.422;2023-12-20T07:41:12;19.32;;;11.75;;
68942;SDS011;60852;52.190;4.422;2023-12-20T07:43:38;21.04;;;12.97;;
68942;SDS011;60852;52.190;4.422;2023-12-20T07:46:07;17.90;;;11.54;;
68942;SDS011;60852;52.190;4.422;2023-12-20T07:48:37;14.99;;;9.89;;
68942;SDS011;60852;52.190;4.422;2023-12-20T07:51:03;16.53;;;10.62;;
68942;SDS011;60852;52.190;4.422;2023-12-20T07:53:29;15.39;;;9.92;;
68942;SDS011;60852;52.190;4.422;2023-12-20T07:55:55;16.51;;;10.57;;
68942;SDS011;60852;52.190;4.422;2023-12-20T07:58:20;16.91;;;11.00;;
68942;SDS011;60852;52.190;4.422;2023-12-20T08:00:47;17.04;;;11.11;;
68942;SDS011;60852;52.190;4.422;2023-12-20T08:03:12;17.66;;;11.24;;
68942;SDS011;60852;52.190;4.422;2023-12-20T08:05:38;18.23;;;11.61;;
68942;SDS011;60852;52.190;4.422;2023-12-20T08:08:05;16.25;;;10.45;;
68942;SDS011;60852;52.190;4.422;2023-12-20T08:10:31;16.55;;;10.81;;
68942;SDS011;60852;52.190;4.422;2023-12-20T08:12:57;17.85;;;11.45;;
68942;SDS011;60852;52.190;4.422;2023-12-20T08:15:22;16.36;;;10.53;;
68942;SDS011;60852;52.190;4.422;2023-12-20T08:17:48;17.47;;;11.16;;
68942;SDS011;60852;52.190;4.422;2023-12-20T08:20:16;17.86;;;11.27;;
68942;SDS011;60852;52.190;4.422;2023-12-20T08:22:42;17.78;;;11.19;;
68942;SDS011;60852;52.190;4.422;2023-12-20T08:25:07;17.33;;;10.90;;
68942;SDS011;60852;52.190;4.422;2023-12-20T08:27:34;15.96;;;10.29;;
68942;SDS011;60852;52.190;4.422;2023-12-20T08:30:03;15.86;;;10.20;;
68942;SDS011;60852;52.190;4.422;2023-12-20T08:32:29;16.42;;;10.42;;
68942;SDS011;60852;52.190;4.422;2023-12-20T08:34:54;16.94;;;10.58;;
68942;SDS011;60852;52.190;4.422;2023-12-20T08:37:20;18.00;;;11.20;;
68942;SDS011;60852;52.190;4.422;2023-12-20T08:39:45;17.07;;;10.66;;
68942;SDS011;60852;52.190;4.422;2023-12-20T08:42:11;16.28;;;10.10;;
68942;SDS011;60852;52.190;4.422;2023-12-20T08:44:36;15.75;;;10.12;;
68942;SDS011;60852;52.190;4.422;2023-12-20T08:47:02;15.55;;;9.86;;
68942;SDS011;60852;52.190;4.422;2023-12-20T08:49:27;15.56;;;10.08;;
68942;SDS011;60852;52.190;4.422;2023-12-20T08:51:53;16.09;;;10.24;;
68942;SDS011;60852;52.190;4.422;2023-12-20T08:54:18;15.65;;;9.94;;
68942;SDS011;60852;52.190;4.422;2023-12-20T08:56:44;17.18;;;10.74;;
68942;SDS011;60852;52.190;4.422;2023-12-20T08:59:11;16.41;;;10.19;;
68942;SDS011;60852;52.190;4.422;2023-12-20T09:01:37;17.24;;;10.69;;
68942;SDS011;60852;52.190;4.422;2023-12-20T09:04:02;17.44;;;11.02;;
68942;SDS011;60852;52.190;4.422;2023-12-20T09:06:28;16.85;;;10.73;;
68942;SDS011;60852;52.190;4.422;2023-12-20T09:08:53;16.47;;;10.33;;
68942;SDS011;60852;52.190;4.422;2023-12-20T09:11:19;15.90;;;10.00;;
68942;SDS011;60852;52.190;4.422;2023-12-20T09:13:44;16.29;;;10.26;;
68942;SDS011;60852;52.190;4.422;2023-12-20T09:16:10;16.80;;;10.64;;
68942;SDS011;60852;52.190;4.422;2023-12-20T09:18:35;17.08;;;10.87;;
68942;SDS011;60852;52.190;4.422;2023-12-20T09:21:01;15.79;;;10.06;;
68942;SDS011;60852;52.190;4.422;2023-12-20T09:23:27;15.75;;;10.01;;
68942;SDS011;60852;52.190;4.422;2023-12-20T09:25:52;17.88;;;11.14;;
68942;SDS011;60852;52.190;4.422;2023-12-20T09:28:18;17.27;;;11.03;;
68942;SDS011;60852;52.190;4.422;2023-12-20T09:30:43;17.99;;;11.46;;
68942;SDS011;60852;52.190;4.422;2023-12-20T09:33:10;16.18;;;10.41;;
68942;SDS011;60852;52.190;4.422;2023-12-20T09:35:36;16.90;;;10.73;;
68942;SDS011;60852;52.190;4.422;2023-12-20T09:38:01;18.13;;;11.45;;
68942;SDS011;60852;52.190;4.422;2023-12-20T09:40:27;17.97;;;11.14;;
68942;SDS011;60852;52.190;4.422;2023-12-20T09:42:57;16.61;;;10.31;;
68942;SDS011;60852;52.190;4.422;2023-12-20T09:45:23;17.34;;;11.13;;
68942;SDS011;60852;52.190;4.422;2023-12-20T09:47:50;17.37;;;11.03;;
68942;SDS011;60852;52.190;4.422;2023-12-20T09:50:19;16.15;;;10.25;;
68942;SDS011;60852;52.190;4.422;2023-12-20T09:52:49;17.45;;;10.85;;
68942;SDS011;60852;52.190;4.422;2023-12-20T09:55:19;16.67;;;10.35;;
68942;SDS011;60852;52.190;4.422;2023-12-20T09:57:46;16.74;;;10.56;;
68942;SDS011;60852;52.190;4.422;2023-12-20T10:00:14;14.78;;;9.48;;
68942;SDS011;60852;52.190;4.422;2023-12-20T10:02:59;15.19;;;9.84;;
68942;SDS011;60852;52.190;4.422;2023-12-20T10:05:26;16.47;;;10.38;;
68942;SDS011;60852;52.190;4.422;2023-12-20T10:07:54;16.58;;;10.60;;
68942;SDS011;60852;52.190;4.422;2023-12-20T10:10:19;13.30;;;8.57;;
68942;SDS011;60852;52.190;4.422;2023-12-20T10:15:46;18.44;;;11.36;;
68942;SDS011;60852;52.190;4.422;2023-12-20T10:18:12;17.14;;;10.71;;
68942;SDS011;60852;52.190;4.422;2023-12-20T10:20:39;16.33;;;10.14;;
68942;SDS011;60852;52.190;4.422;2023-12-20T10:23:06;16.25;;;10.33;;
68942;SDS011;60852;52.190;4.422;2023-12-20T10:25:31;17.03;;;10.61;;
68942;SDS011;60852;52.190;4.422;2023-12-20T10:28:13;19.14;;;11.72;;
68942;SDS011;60852;52.190;4.422;2023-12-20T10:30:42;18.00;;;12.07;;
68942;SDS011;60852;52.190;4.422;2023-12-20T10:33:08;12.99;;;8.83;;
68942;SDS011;60852;52.190;4.422;2023-12-20T10:35:35;14.99;;;9.85;;
68942;SDS011;60852;52.190;4.422;2023-12-20T10:38:03;14.84;;;9.39;;
68942;SDS011;60852;52.190;4.422;2023-12-20T10:40:30;16.92;;;10.65;;
68942;SDS011;60852;52.190;4.422;2023-12-20T10:42:56;14.82;;;9.56;;
68942;SDS011;60852;52.190;4.422;2023-12-20T10:45:24;15.28;;;9.99;;
68942;SDS011;60852;52.190;4.422;2023-12-20T10:47:50;14.00;;;8.98;;
68942;SDS011;60852;52.190;4.422;2023-12-20T10:50:16;15.78;;;10.03;;
68942;SDS011;60852;52.190;4.422;2023-12-20T10:52:44;15.69;;;9.82;;
68942;SDS011;60852;52.190;4.422;2023-12-20T10:55:12;16.54;;;10.31;;
68942;SDS011;60852;52.190;4.422;2023-12-20T10:57:38;16.21;;;10.04;;
68942;SDS011;60852;52.190;4.422;2023-12-20T11:00:04;15.10;;;9.41;;
68942;SDS011;60852;52.190;4.422;2023-12-20T11:02:34;14.86;;;9.32;;
68942;SDS011;60852;52.190;4.422;2023-12-20T11:07:47;15.93;;;9.95;;
68942;SDS011;60852;52.190;4.422;2023-12-20T11:10:19;16.29;;;10.09;;
68942;SDS011;60852;52.190;4.422;2023-12-20T11:15:42;14.50;;;9.17;;
68942;SDS011;60852;52.190;4.422;2023-12-20T11:18:08;13.86;;;8.81;;
68942;SDS011;60852;52.190;4.422;2023-12-20T11:20:37;13.93;;;8.79;;
68942;SDS011;60852;52.190;4.422;2023-12-20T11:23:04;14.01;;;8.87;;
68942;SDS011;60852;52.190;4.422;2023-12-20T11:25:31;15.93;;;9.96;;
68942;SDS011;60852;52.190;4.422;2023-12-20T11:28:12;16.41;;;10.20;;
68942;SDS011;60852;52.190;4.422;2023-12-20T11:30:42;14.63;;;9.21;;
68942;SDS011;60852;52.190;4.422;2023-12-20T11:33:08;14.51;;;9.22;;
68942;SDS011;60852;52.190;4.422;2023-12-20T11:35:34;15.10;;;9.47;;
68942;SDS011;60852;52.190;4.422;2023-12-20T11:38:01;14.78;;;9.24;;
68942;SDS011;60852;52.190;4.422;2023-12-20T11:40:27;16.04;;;9.93;;
68942;SDS011;60852;52.190;4.422;2023-12-20T11:42:52;16.02;;;10.10;;
68942;SDS011;60852;52.190;4.422;2023-12-20T11:45:20;14.83;;;9.43;;
68942;SDS011;60852;52.190;4.422;2023-12-20T11:47:47;14.47;;;9.20;;
68942;SDS011;60852;52.190;4.422;2023-12-20T11:50:19;14.68;;;9.25;;
68942;SDS011;60852;52.190;4.422;2023-12-20T11:52:46;14.72;;;9.27;;
68942;SDS011;60852;52.190;4.422;2023-12-20T11:55:12;14.55;;;9.27;;
68942;SDS011;60852;52.190;4.422;2023-12-20T11:57:37;13.58;;;8.71;;
68942;SDS011;60852;52.190;4.422;2023-12-20T12:00:03;13.52;;;8.73;;
68942;SDS011;60852;52.190;4.422;2023-12-20T12:02:31;13.27;;;8.51;;
68942;SDS011;60852;52.190;4.422;2023-12-20T12:04:57;16.78;;;10.80;;
68942;SDS011;60852;52.190;4.422;2023-12-20T12:07:24;13.07;;;8.70;;
68942;SDS011;60852;52.190;4.422;2023-12-20T12:09:50;13.19;;;8.64;;
68942;SDS011;60852;52.190;4.422;2023-12-20T12:12:16;13.58;;;8.83;;
68942;SDS011;60852;52.190;4.422;2023-12-20T12:14:44;13.83;;;9.01;;
68942;SDS011;60852;52.190;4.422;2023-12-20T12:17:13;14.99;;;9.67;;
68942;SDS011;60852;52.190;4.422;2023-12-20T12:19:39;13.13;;;8.58;;
68942;SDS011;60852;52.190;4.422;2023-12-20T12:22:12;15.14;;;9.75;;
68942;SDS011;60852;52.190;4.422;2023-12-20T12:24:40;13.08;;;8.48;;
68942;SDS011;60852;52.190;4.422;2023-12-20T12:27:06;14.92;;;9.40;;
68942;SDS011;60852;52.190;4.422;2023-12-20T12:29:33;16.26;;;10.15;;
68942;SDS011;60852;52.190;4.422;2023-12-20T12:31:59;16.09;;;10.04;;
68942;SDS011;60852;52.190;4.422;2023-12-20T12:34:28;16.03;;;9.98;;
68942;SDS011;60852;52.190;4.422;2023-12-20T12:36:54;15.19;;;9.30;;
68942;SDS011;60852;52.190;4.422;2023-12-20T12:39:19;15.26;;;9.54;;
68942;SDS011;60852;52.190;4.422;2023-12-20T12:41:45;14.46;;;9.17;;
68942;SDS011;60852;52.190;4.422;2023-12-20T12:44:10;16.10;;;10.17;;
68942;SDS011;60852;52.190;4.422;2023-12-20T12:46:36;15.82;;;10.40;;
68942;SDS011;60852;52.190;4.422;2023-12-20T12:49:01;14.81;;;9.52;;
68942;SDS011;60852;52.190;4.422;2023-12-20T12:51:27;14.72;;;9.43;;
68942;SDS011;60852;52.190;4.422;2023-12-20T12:53:52;17.24;;;11.06;;
68942;SDS011;60852;52.190;4.422;2023-12-20T12:56:18;16.28;;;10.16;;
68942;SDS011;60852;52.190;4.422;2023-12-20T12:58:44;16.67;;;10.41;;
68942;SDS011;60852;52.190;4.422;2023-12-20T13:01:10;15.29;;;9.73;;
68942;SDS011;60852;52.190;4.422;2023-12-20T13:03:35;13.44;;;8.62;;
68942;SDS011;60852;52.190;4.422;2023-12-20T13:06:01;14.23;;;9.08;;
68942;SDS011;60852;52.190;4.422;2023-12-20T13:08:27;14.08;;;8.95;;
68942;SDS011;60852;52.190;4.422;2023-12-20T13:10:53;14.81;;;9.34;;
68942;SDS011;60852;52.190;4.422;2023-12-20T13:13:19;14.18;;;8.86;;
68942;SDS011;60852;52.190;4.422;2023-12-20T13:15:44;15.46;;;9.57;;
68942;SDS011;60852;52.190;4.422;2023-12-20T13:18:17;17.80;;;10.98;;
68942;SDS011;60852;52.190;4.422;2023-12-20T13:20:44;15.58;;;9.77;;
68942;SDS011;60852;52.190;4.422;2023-12-20T13:23:09;13.58;;;8.61;;
68942;SDS011;60852;52.190;4.422;2023-12-20T13:25:35;12.90;;;8.24;;
68942;SDS011;60852;52.190;4.422;2023-12-20T13:28:01;13.75;;;8.89;;
68942;SDS011;60852;52.190;4.422;2023-12-20T13:30:27;16.63;;;10.70;;
68942;SDS011;60852;52.190;4.422;2023-12-20T13:32:53;15.25;;;10.33;;
68942;SDS011;60852;52.190;4.422;2023-12-20T13:35:18;14.33;;;9.78;;
68942;SDS011;60852;52.190;4.422;2023-12-20T13:37:44;13.99;;;9.21;;
68942;SDS011;60852;52.190;4.422;2023-12-20T13:40:10;16.04;;;10.21;;
68942;SDS011;60852;52.190;4.422;2023-12-20T13:42:35;15.68;;;9.90;;
68942;SDS011;60852;52.190;4.422;2023-12-20T13:45:01;15.52;;;9.83;;
68942;SDS011;60852;52.190;4.422;2023-12-20T13:47:26;15.54;;;10.01;;
68942;SDS011;60852;52.190;4.422;2023-12-20T13:49:52;17.59;;;11.98;;
68942;SDS011;60852;52.190;4.422;2023-12-20T13:52:17;13.46;;;9.92;;
68942;SDS011;60852;52.190;4.422;2023-12-20T13:54:43;14.05;;;10.20;;
68942;SDS011;60852;52.190;4.422;2023-12-20T13:57:09;15.44;;;11.08;;
68942;SDS011;60852;52.190;4.422;2023-12-20T13:59:34;13.77;;;10.78;;
68942;SDS011;60852;52.190;4.422;2023-12-20T14:02:00;11.87;;;8.98;;
68942;SDS011;60852;52.190;4.422;2023-12-20T14:04:26;11.20;;;8.16;;
68942;SDS011;60852;52.190;4.422;2023-12-20T14:06:51;12.87;;;9.35;;
68942;SDS011;60852;52.190;4.422;2023-12-20T14:09:17;13.30;;;9.75;;
68942;SDS011;60852;52.190;4.422;2023-12-20T14:11:42;13.60;;;10.14;;
68942;SDS011;60852;52.190;4.422;2023-12-20T14:14:08;12.97;;;9.01;;
68942;SDS011;60852;52.190;4.422;2023-12-20T14:16:33;14.76;;;9.89;;
68942;SDS011;60852;52.190;4.422;2023-12-20T14:19:00;15.23;;;10.14;;
68942;SDS011;60852;52.190;4.422;2023-12-20T14:21:25;15.19;;;10.02;;
68942;SDS011;60852;52.190;4.422;2023-12-20T14:23:51;14.48;;;9.82;;
68942;SDS011;60852;52.190;4.422;2023-12-20T14:26:17;14.95;;;9.85;;
68942;SDS011;60852;52.190;4.422;2023-12-20T14:28:43;14.20;;;9.68;;
68942;SDS011;60852;52.190;4.422;2023-12-20T14:31:09;12.57;;;9.31;;